createdAt,value
2022-11-23T00:02:15.931Z,3.03
2022-11-23T00:04:42.133Z,3.25
2022-11-23T00:07:08.372Z,2.97
2022-11-23T00:09:34.628Z,2.20
2022-11-23T00:12:00.734Z,2.45
2022-11-23T00:14:26.891Z,2.20
2022-11-23T00:16:53.051Z,2.40
2022-11-23T00:19:19.169Z,2.10
2022-11-23T00:21:45.297Z,2.42
2022-11-23T00:24:11.430Z,2.33
2022-11-23T00:26:37.599Z,1.80
2022-11-23T00:29:03.803Z,2.50
2022-11-23T00:31:29.975Z,2.30
2022-11-23T00:33:56.098Z,1.90
2022-11-23T00:36:22.270Z,2.70
2022-11-23T00:38:48.423Z,2.65
2022-11-23T00:41:14.571Z,2.42
2022-11-23T00:43:40.699Z,2.58
2022-11-23T00:46:06.870Z,2.20
2022-11-23T00:48:33.054Z,2.10
2022-11-23T00:50:59.177Z,2.42
2022-11-23T00:53:25.374Z,2.58
2022-11-23T00:55:51.554Z,2.28
2022-11-23T00:58:17.738Z,2.05
2022-11-23T01:00:43.869Z,2.20
2022-11-23T01:03:10.053Z,2.30
2022-11-23T01:05:36.199Z,2.17
2022-11-23T01:08:02.312Z,1.60
2022-11-23T01:10:28.476Z,1.85
2022-11-23T01:12:54.666Z,2.13
2022-11-23T01:15:20.817Z,1.92
2022-11-23T01:17:46.986Z,1.95
2022-11-23T01:20:13.180Z,1.60
2022-11-23T01:22:39.330Z,1.83
2022-11-23T01:25:05.446Z,2.10
2022-11-23T01:27:31.627Z,1.60
2022-11-23T01:29:57.752Z,2.20
2022-11-23T01:32:23.910Z,1.60
2022-11-23T01:34:50.061Z,2.22
2022-11-23T01:37:16.227Z,1.50
2022-11-23T01:39:42.608Z,1.70
2022-11-23T01:42:08.763Z,2.33
2022-11-23T01:44:34.970Z,1.55
2022-11-23T01:47:01.220Z,1.75
2022-11-23T01:49:27.402Z,1.60
2022-11-23T01:51:53.562Z,1.65
2022-11-23T01:54:19.730Z,1.60
2022-11-23T01:56:45.902Z,2.22
2022-11-23T01:59:12.073Z,1.80
2022-11-23T02:01:38.274Z,2.30
2022-11-23T02:04:04.435Z,1.90
2022-11-23T02:06:30.575Z,1.60
2022-11-23T02:08:56.746Z,1.70
2022-11-23T02:11:22.882Z,2.22
2022-11-23T02:13:49.040Z,1.67
2022-11-23T02:16:15.194Z,2.08
2022-11-23T02:18:41.359Z,1.63
2022-11-23T02:21:07.541Z,1.73
2022-11-23T02:23:33.705Z,1.75
2022-11-23T02:25:59.939Z,1.83
2022-11-23T02:28:26.071Z,1.70
2022-11-23T02:30:52.242Z,1.60
2022-11-23T02:33:18.351Z,1.55
2022-11-23T02:35:44.517Z,1.65
2022-11-23T02:38:10.707Z,1.75
2022-11-23T02:40:36.847Z,1.60
2022-11-23T02:43:03.019Z,1.52
2022-11-23T02:45:29.162Z,1.83
2022-11-23T02:47:55.350Z,1.20
2022-11-23T02:50:21.519Z,1.45
2022-11-23T02:52:47.678Z,3.33
2022-11-23T02:55:13.828Z,1.85
2022-11-23T02:57:39.973Z,1.65
2022-11-23T03:00:06.177Z,1.63
2022-11-23T03:02:32.344Z,1.95
2022-11-23T03:04:58.502Z,1.85
2022-11-23T03:07:24.687Z,1.90
2022-11-23T03:09:50.841Z,2.08
2022-11-23T03:12:16.987Z,1.67
2022-11-23T03:14:43.174Z,1.83
2022-11-23T03:17:09.338Z,1.40
2022-11-23T03:19:35.697Z,1.88
2022-11-23T03:22:01.925Z,2.03
2022-11-23T03:24:28.083Z,1.73
2022-11-23T03:26:54.280Z,2.03
2022-11-23T03:29:20.449Z,1.98
2022-11-23T03:31:46.596Z,1.80
2022-11-23T03:34:12.748Z,1.42
2022-11-23T03:36:38.876Z,1.58
2022-11-23T03:39:05.069Z,2.10
2022-11-23T03:41:31.264Z,1.92
2022-11-23T03:43:57.383Z,2.10
2022-11-23T03:46:23.488Z,1.60
2022-11-23T03:48:49.654Z,1.80
2022-11-23T03:51:15.782Z,1.95
2022-11-23T03:53:41.966Z,1.92
2022-11-23T03:56:08.146Z,1.63
2022-11-23T03:58:34.309Z,1.70
2022-11-23T04:01:00.505Z,1.70
2022-11-23T04:03:26.737Z,1.77
2022-11-23T04:05:52.934Z,1.67
2022-11-23T04:08:19.085Z,1.65
2022-11-23T04:10:45.271Z,1.85
2022-11-23T04:13:11.441Z,1.90
2022-11-23T04:15:37.649Z,1.77
2022-11-23T04:18:03.820Z,1.30
2022-11-23T04:20:29.953Z,1.50
2022-11-23T04:22:56.116Z,1.55
2022-11-23T04:25:22.264Z,1.30
2022-11-23T04:27:48.415Z,1.50
2022-11-23T04:30:14.599Z,1.60
2022-11-23T04:32:40.721Z,1.63
2022-11-23T04:35:06.848Z,1.42
2022-11-23T04:37:33.009Z,1.60
2022-11-23T04:39:59.183Z,1.50
2022-11-23T04:42:25.321Z,1.50
2022-11-23T04:44:51.431Z,2.22
2022-11-23T04:47:17.612Z,1.30
2022-11-23T04:49:43.782Z,1.60
2022-11-23T04:52:09.980Z,1.52
2022-11-23T04:54:36.146Z,1.40
2022-11-23T04:57:02.280Z,1.25
2022-11-23T04:59:28.585Z,1.23
2022-11-23T05:01:54.863Z,1.65
2022-11-23T05:04:21.024Z,1.95
2022-11-23T05:06:47.177Z,1.63
2022-11-23T05:09:13.351Z,1.42
2022-11-23T05:11:39.497Z,1.95
2022-11-23T05:14:05.654Z,1.50
2022-11-23T05:16:31.823Z,1.25
2022-11-23T05:18:57.990Z,1.80
2022-11-23T05:21:24.095Z,2.35
2022-11-23T05:23:50.211Z,1.85
2022-11-23T05:26:16.340Z,1.77
2022-11-23T05:28:42.523Z,1.50
2022-11-23T05:31:08.714Z,1.50
2022-11-23T05:33:34.890Z,1.35
2022-11-23T05:36:01.042Z,2.10
2022-11-23T05:38:27.249Z,2.20
2022-11-23T05:40:53.414Z,2.83
2022-11-23T05:43:19.615Z,3.30
2022-11-23T05:45:45.778Z,3.67
2022-11-23T05:48:11.982Z,2.72
2022-11-23T05:50:38.121Z,3.30
2022-11-23T05:53:04.232Z,2.85
2022-11-23T05:55:30.373Z,2.08
2022-11-23T05:57:56.494Z,1.70
2022-11-23T06:00:22.609Z,1.40
2022-11-23T06:02:48.728Z,2.05
2022-11-23T06:05:14.866Z,1.63
2022-11-23T06:07:41.079Z,1.80
2022-11-23T06:10:07.283Z,1.52
2022-11-23T06:12:33.392Z,1.40
2022-11-23T06:14:59.561Z,1.35
2022-11-23T06:17:25.703Z,1.30
2022-11-23T06:19:51.817Z,1.38
2022-11-23T06:22:17.931Z,1.83
2022-11-23T06:24:44.123Z,1.42
2022-11-23T06:27:13.978Z,1.80
2022-11-23T06:29:42.888Z,1.80
2022-11-23T06:32:09.017Z,1.60
2022-11-23T06:34:35.141Z,1.60
2022-11-23T06:37:01.276Z,1.83
2022-11-23T06:39:27.470Z,1.50
2022-11-23T06:41:57.050Z,1.63
2022-11-23T06:44:28.947Z,1.80
2022-11-23T06:46:55.071Z,1.90
2022-11-23T06:49:21.234Z,1.70
2022-11-23T06:51:47.358Z,1.80
2022-11-23T06:54:13.537Z,2.05
2022-11-23T06:56:39.711Z,2.22
2022-11-23T06:59:05.916Z,2.17
2022-11-23T07:01:32.153Z,2.08
2022-11-23T07:03:58.455Z,2.22
2022-11-23T07:06:24.606Z,2.65
2022-11-23T07:08:50.764Z,2.20
2022-11-23T07:11:16.945Z,1.85
2022-11-23T07:13:43.079Z,1.90
2022-11-23T07:16:09.211Z,1.95
2022-11-23T07:18:35.374Z,2.10
2022-11-23T07:21:01.528Z,1.95
2022-11-23T07:23:27.680Z,1.60
2022-11-23T07:25:53.831Z,2.03
2022-11-23T07:28:19.986Z,2.53
2022-11-23T07:30:46.189Z,1.92
2022-11-23T07:33:12.360Z,2.20
2022-11-23T07:35:38.513Z,1.95
2022-11-23T07:38:04.631Z,2.35
2022-11-23T07:40:30.816Z,2.58
2022-11-23T07:42:56.995Z,2.35
2022-11-23T07:45:23.155Z,2.42
2022-11-23T07:47:49.330Z,1.95
2022-11-23T07:50:15.481Z,2.13
2022-11-23T07:52:41.627Z,2.15
2022-11-23T07:55:07.792Z,1.83
2022-11-23T07:57:34.059Z,2.05
2022-11-23T08:00:00.283Z,2.20
2022-11-23T08:02:28.036Z,2.30
2022-11-23T08:04:54.240Z,1.77
2022-11-23T08:07:20.450Z,2.42
2022-11-23T08:09:46.572Z,2.10
2022-11-23T08:12:12.706Z,3.35
2022-11-23T08:14:38.873Z,2.28
2022-11-23T08:17:05.043Z,2.40
2022-11-23T08:19:31.184Z,2.30
2022-11-23T08:21:57.322Z,2.35
2022-11-23T08:24:23.439Z,2.00
2022-11-23T08:26:49.638Z,2.15
2022-11-23T08:29:15.760Z,2.42
2022-11-23T08:31:41.884Z,2.28
2022-11-23T08:34:08.017Z,2.45
2022-11-23T08:36:34.310Z,1.95
2022-11-23T08:39:02.399Z,2.10
2022-11-23T08:41:28.549Z,2.20
2022-11-23T08:43:54.712Z,1.88
2022-11-23T08:46:20.860Z,2.55
2022-11-23T08:48:47.050Z,1.95
2022-11-23T08:51:13.246Z,1.85
2022-11-23T08:53:39.389Z,2.20
2022-11-23T08:56:05.589Z,1.52
2022-11-23T08:58:31.763Z,1.75
2022-11-23T09:00:57.891Z,1.30
2022-11-23T09:03:24.040Z,1.67
2022-11-23T09:05:50.210Z,1.63
2022-11-23T09:08:16.435Z,1.60
2022-11-23T09:10:42.552Z,1.25
2022-11-23T09:13:08.698Z,1.70
2022-11-23T09:15:34.857Z,1.67
2022-11-23T09:18:01.016Z,1.58
2022-11-23T09:20:27.145Z,1.90
2022-11-23T09:22:53.258Z,1.50
2022-11-23T09:25:19.393Z,2.05
2022-11-23T09:27:45.547Z,1.60
2022-11-23T09:30:11.729Z,1.42
2022-11-23T09:32:37.893Z,1.60
2022-11-23T09:35:04.135Z,1.92
2022-11-23T09:37:30.301Z,1.35
2022-11-23T09:39:56.419Z,1.35
2022-11-23T09:42:22.601Z,2.25
2022-11-23T09:44:48.808Z,1.27
2022-11-23T09:47:14.912Z,1.60
2022-11-23T09:49:41.054Z,1.30
2022-11-23T09:52:07.203Z,1.40
2022-11-23T09:54:33.516Z,1.50
2022-11-23T09:57:01.949Z,1.85
2022-11-23T09:59:28.485Z,1.58
2022-11-23T10:01:54.674Z,1.70
2022-11-23T10:04:20.906Z,1.73
2022-11-23T10:06:47.074Z,1.63
2022-11-23T10:09:13.251Z,1.30
2022-11-23T10:11:39.393Z,1.60
2022-11-23T10:14:05.574Z,1.60
2022-11-23T10:16:31.765Z,1.48
2022-11-23T10:18:57.972Z,1.60
2022-11-23T10:21:24.201Z,1.25
2022-11-23T10:23:50.403Z,1.88
2022-11-23T10:26:16.574Z,2.00
2022-11-23T10:28:42.782Z,1.58
2022-11-23T10:31:08.956Z,1.20
2022-11-23T10:33:35.107Z,2.30
2022-11-23T10:36:01.284Z,1.30
2022-11-23T10:38:27.422Z,1.70
2022-11-23T10:40:53.572Z,1.50
2022-11-23T10:43:19.768Z,1.50
2022-11-23T10:45:45.924Z,1.50
2022-11-23T10:48:12.094Z,1.92
2022-11-23T10:50:38.298Z,2.33
2022-11-23T10:53:04.453Z,1.77
2022-11-23T10:55:30.624Z,1.52
2022-11-23T10:57:56.804Z,1.50
2022-11-23T11:00:28.812Z,1.83
2022-11-23T11:02:56.588Z,1.75
2022-11-23T11:05:35.464Z,2.40
2022-11-23T11:08:08.850Z,1.95
2022-11-23T11:10:34.977Z,1.73
2022-11-23T11:13:01.082Z,1.70
2022-11-23T11:15:27.250Z,2.63
2022-11-23T11:17:53.432Z,2.08
2022-11-23T11:20:19.610Z,1.88
2022-11-23T11:22:47.896Z,2.33
2022-11-23T11:25:14.265Z,2.30
2022-11-23T11:27:40.392Z,1.65
2022-11-23T11:30:06.577Z,1.73
2022-11-23T11:32:32.747Z,1.90
2022-11-23T11:34:58.870Z,2.13
2022-11-23T11:37:25.093Z,2.03
2022-11-23T11:39:51.218Z,1.70
2022-11-23T11:42:17.348Z,1.67
2022-11-23T11:44:43.511Z,1.70
2022-11-23T11:47:09.647Z,1.50
2022-11-23T11:49:35.797Z,1.40
2022-11-23T11:52:01.955Z,1.80
2022-11-23T11:54:28.173Z,2.63
2022-11-23T11:56:54.282Z,1.10
2022-11-23T11:59:20.420Z,1.58
2022-11-23T12:01:46.625Z,1.73
2022-11-23T12:04:12.731Z,1.77
2022-11-23T12:06:38.880Z,1.70
2022-11-23T12:09:05.036Z,1.13
2022-11-23T12:11:31.186Z,1.13
2022-11-23T12:13:57.319Z,1.50
2022-11-23T12:16:23.597Z,1.15
2022-11-23T12:18:49.805Z,1.40
2022-11-23T12:21:16.017Z,1.30
2022-11-23T12:23:42.205Z,1.15
2022-11-23T12:26:08.397Z,1.20
2022-11-23T12:28:34.528Z,1.35
2022-11-23T12:31:00.711Z,1.23
2022-11-23T12:33:26.828Z,1.50
2022-11-23T12:35:52.963Z,1.60
2022-11-23T12:38:19.128Z,1.05
2022-11-23T12:40:45.394Z,1.23
2022-11-23T12:43:11.543Z,1.73
2022-11-23T12:45:37.703Z,1.50
2022-11-23T12:48:03.912Z,1.10
2022-11-23T12:50:30.096Z,1.17
2022-11-23T12:52:56.314Z,1.60
2022-11-23T12:55:22.470Z,1.25
2022-11-23T12:57:48.609Z,1.98
2022-11-23T13:00:14.813Z,2.28
2022-11-23T13:02:40.982Z,1.38
2022-11-23T13:05:07.198Z,1.73
2022-11-23T13:07:41.015Z,1.30
2022-11-23T13:10:10.949Z,1.45
2022-11-23T13:12:37.126Z,1.33
2022-11-23T13:15:03.271Z,1.30
2022-11-23T13:17:29.416Z,1.40
2022-11-23T13:19:55.588Z,1.27
2022-11-23T13:22:21.771Z,1.30
2022-11-23T13:24:47.905Z,1.38
2022-11-23T13:27:14.066Z,1.40
2022-11-23T13:29:40.210Z,1.17
2022-11-23T13:32:06.428Z,0.75
2022-11-23T13:34:32.903Z,0.95
2022-11-23T13:37:14.663Z,1.20
2022-11-23T13:39:40.872Z,1.27
2022-11-23T13:42:07.013Z,1.27
2022-11-23T13:44:33.486Z,0.88
2022-11-23T13:46:59.840Z,0.90
2022-11-23T13:49:25.999Z,1.65
2022-11-23T13:51:52.218Z,1.00
2022-11-23T13:54:18.392Z,0.93
2022-11-23T13:56:44.538Z,0.90
2022-11-23T13:59:10.724Z,1.35
2022-11-23T14:01:36.897Z,1.00
2022-11-23T14:04:03.069Z,1.20
2022-11-23T14:06:29.191Z,1.02
2022-11-23T14:08:55.344Z,1.05
2022-11-23T14:11:21.537Z,0.70
2022-11-23T14:13:47.749Z,0.80
2022-11-23T14:16:13.969Z,0.80
2022-11-23T14:18:40.126Z,1.10
2022-11-23T14:21:06.266Z,1.10
2022-11-23T14:23:32.421Z,0.82
2022-11-23T14:25:58.606Z,0.70
2022-11-23T14:28:24.746Z,1.10
2022-11-23T14:30:50.866Z,1.60
2022-11-23T14:33:17.052Z,1.08
2022-11-23T14:35:43.227Z,0.80
2022-11-23T14:38:09.396Z,1.17
2022-11-23T14:40:35.543Z,1.48
2022-11-23T14:43:01.733Z,1.25
2022-11-23T14:45:27.967Z,2.10
2022-11-23T14:47:54.118Z,0.95
2022-11-23T14:50:20.331Z,1.50
2022-11-23T14:52:46.457Z,1.73
2022-11-23T14:55:12.610Z,1.20
2022-11-23T14:57:38.791Z,1.17
2022-11-23T15:00:11.441Z,1.20
2022-11-23T15:02:38.035Z,1.20
2022-11-23T15:05:04.268Z,1.40
2022-11-23T15:07:30.604Z,1.83
2022-11-23T15:09:56.777Z,1.85
2022-11-23T15:12:22.935Z,1.30
2022-11-23T15:14:49.085Z,1.98
2022-11-23T15:17:15.239Z,2.05
2022-11-23T15:19:41.363Z,1.80
2022-11-23T15:22:07.549Z,2.20
2022-11-23T15:24:33.791Z,1.40
2022-11-23T15:27:00.038Z,1.50
2022-11-23T15:29:26.160Z,2.67
2022-11-23T15:32:14.237Z,1.83
2022-11-23T15:34:38.462Z,1.60
2022-11-23T15:37:04.685Z,1.70
2022-11-23T15:39:31.301Z,1.52
2022-11-23T15:41:57.750Z,1.50
2022-11-23T15:44:23.943Z,1.80
2022-11-23T15:46:50.079Z,1.60
2022-11-23T15:49:16.259Z,1.88
2022-11-23T15:51:42.438Z,1.63
2022-11-23T15:54:08.617Z,1.60
2022-11-23T15:56:34.830Z,2.30
2022-11-23T15:59:01.003Z,2.17
2022-11-23T16:01:27.174Z,1.90
2022-11-23T16:03:53.314Z,2.00
2022-11-23T16:06:19.464Z,1.77
2022-11-23T16:08:45.616Z,1.80
2022-11-23T16:11:11.815Z,1.90
2022-11-23T16:13:37.937Z,1.92
2022-11-23T16:16:04.099Z,2.00
2022-11-23T16:18:30.232Z,2.17
2022-11-23T16:20:56.416Z,2.20
2022-11-23T16:23:22.554Z,2.17
2022-11-23T16:25:48.698Z,2.15
2022-11-23T16:28:14.864Z,2.28
2022-11-23T16:30:41.109Z,2.25
2022-11-23T16:33:07.319Z,2.55
2022-11-23T16:35:33.463Z,2.55
2022-11-23T16:37:59.663Z,2.15
2022-11-23T16:40:25.782Z,2.03
2022-11-23T16:42:51.964Z,2.00
2022-11-23T16:45:18.096Z,2.22
2022-11-23T16:47:44.278Z,2.03
2022-11-23T16:50:10.461Z,2.28
2022-11-23T16:52:36.656Z,1.83
2022-11-23T16:55:02.771Z,2.08
2022-11-23T16:57:29.027Z,2.00
2022-11-23T16:59:55.258Z,2.05
2022-11-23T17:02:21.427Z,1.92
2022-11-23T17:04:47.679Z,10.50
2022-11-23T17:07:14.042Z,1.88
2022-11-23T17:09:40.225Z,2.58
2022-11-23T17:12:06.379Z,2.00
2022-11-23T17:14:32.833Z,2.20
2022-11-23T17:17:02.210Z,3.25
2022-11-23T17:19:28.413Z,2.30
2022-11-23T17:21:54.533Z,2.80
2022-11-23T17:24:20.686Z,2.10
2022-11-23T17:26:46.843Z,2.50
2022-11-23T17:29:13.026Z,2.95
2022-11-23T17:31:39.186Z,2.35
2022-11-23T17:34:05.305Z,2.90
2022-11-23T17:36:31.442Z,2.65
2022-11-23T17:38:57.572Z,2.85
2022-11-23T17:44:13.844Z,3.10
2022-11-23T17:46:40.057Z,2.85
2022-11-23T17:49:06.269Z,3.08
2022-11-23T17:51:32.397Z,3.30
2022-11-23T17:53:58.575Z,3.83
2022-11-23T17:56:24.718Z,3.60
2022-11-23T17:58:50.850Z,4.63
2022-11-23T18:01:17.137Z,4.28
2022-11-23T18:03:43.407Z,3.60
2022-11-23T18:06:09.600Z,4.63
2022-11-23T18:08:35.920Z,4.38
2022-11-23T18:11:03.263Z,3.80
2022-11-23T18:13:29.579Z,4.10
2022-11-23T18:15:56.113Z,3.92
2022-11-23T18:18:22.365Z,3.80
2022-11-23T18:20:48.529Z,3.40
2022-11-23T18:23:14.790Z,4.03
2022-11-23T18:25:41.199Z,3.90
2022-11-23T18:28:07.392Z,3.50
2022-11-23T18:30:33.789Z,2.65
2022-11-23T18:33:02.326Z,3.10
2022-11-23T18:35:28.569Z,2.40
2022-11-23T18:37:54.701Z,2.53
2022-11-23T18:40:20.817Z,1.95
2022-11-23T18:42:47.028Z,3.17
2022-11-23T18:45:13.229Z,2.17
2022-11-23T18:47:39.373Z,2.97
2022-11-23T18:50:06.833Z,2.60
2022-11-23T18:52:33.143Z,2.10
2022-11-23T18:54:59.356Z,2.10
2022-11-23T18:57:25.552Z,2.15
2022-11-23T18:59:59.192Z,2.08
2022-11-23T19:02:25.565Z,1.70
2022-11-23T19:04:51.697Z,1.73
2022-11-23T19:07:20.913Z,2.55
2022-11-23T19:09:51.361Z,2.88
2022-11-23T19:12:17.534Z,2.88
2022-11-23T19:14:43.716Z,3.00
2022-11-23T19:17:09.904Z,3.05
2022-11-23T19:19:36.371Z,2.63
2022-11-23T19:22:02.999Z,3.35
2022-11-23T19:24:29.184Z,4.50
2022-11-23T19:26:55.353Z,2.85
2022-11-23T19:29:24.833Z,5.53
2022-11-23T19:31:51.202Z,6.40
2022-11-23T19:34:17.358Z,4.50
2022-11-23T19:36:43.518Z,5.50
2022-11-23T19:39:09.719Z,5.72
2022-11-23T19:41:35.899Z,4.78
2022-11-23T19:44:02.157Z,4.70
2022-11-23T19:46:28.369Z,7.45
2022-11-23T19:48:54.611Z,4.38
2022-11-23T19:51:20.783Z,5.10
2022-11-23T19:53:46.949Z,4.30
2022-11-23T19:56:13.133Z,5.35
2022-11-23T19:58:39.268Z,4.07
2022-11-23T20:01:05.414Z,3.58
2022-11-23T20:03:31.797Z,4.75
2022-11-23T20:06:03.962Z,5.55
2022-11-23T20:08:30.073Z,5.63
2022-11-23T20:10:56.296Z,4.10
2022-11-23T20:16:13.211Z,4.20
2022-11-23T20:18:39.390Z,3.40
2022-11-23T20:21:06.044Z,4.20
2022-11-23T20:23:32.260Z,4.40
2022-11-23T20:25:58.446Z,4.40
2022-11-23T20:28:24.589Z,4.20
2022-11-23T20:30:50.984Z,4.63
2022-11-23T20:33:17.163Z,4.50
2022-11-23T20:35:43.375Z,3.42
2022-11-23T20:38:09.503Z,4.57
2022-11-23T20:40:35.705Z,4.55
2022-11-23T20:43:01.930Z,5.13
2022-11-23T20:45:28.108Z,5.70
2022-11-23T20:47:54.347Z,4.32
2022-11-23T20:50:20.486Z,4.63
2022-11-23T20:52:46.613Z,4.18
2022-11-23T20:55:12.803Z,3.85
2022-11-23T20:57:38.981Z,3.95
2022-11-23T21:00:05.152Z,3.50
2022-11-23T21:02:31.438Z,3.70
2022-11-23T21:04:57.665Z,3.83
2022-11-23T21:07:23.986Z,3.28
2022-11-23T21:09:50.209Z,4.05
2022-11-23T21:12:16.457Z,3.42
2022-11-23T21:14:42.821Z,3.47
2022-11-23T21:17:09.028Z,3.53
2022-11-23T21:19:35.221Z,3.70
2022-11-23T21:22:01.412Z,3.20
2022-11-23T21:24:27.608Z,3.20
2022-11-23T21:26:53.824Z,3.10
2022-11-23T21:29:20.182Z,3.22
2022-11-23T21:31:46.422Z,3.60
2022-11-23T21:34:12.632Z,3.38
2022-11-23T21:36:38.919Z,3.53
2022-11-23T21:39:05.124Z,3.70
2022-11-23T21:41:31.340Z,4.13
2022-11-23T21:43:57.660Z,3.92
2022-11-23T21:46:23.915Z,3.78
2022-11-23T21:48:50.107Z,2.95
2022-11-23T21:51:16.275Z,3.25
2022-11-23T21:53:42.462Z,3.65
2022-11-23T21:56:08.621Z,3.40
2022-11-23T21:58:34.856Z,3.95
2022-11-23T22:01:01.088Z,3.60
2022-11-23T22:03:27.419Z,4.03
2022-11-23T22:05:53.538Z,4.13
2022-11-23T22:08:35.131Z,4.30
2022-11-23T22:13:34.020Z,5.05
2022-11-23T22:16:02.837Z,4.05
2022-11-23T22:18:28.992Z,4.10
2022-11-23T22:20:55.144Z,3.78
2022-11-23T22:23:21.396Z,4.30
2022-11-23T22:25:48.350Z,3.97
2022-11-23T22:28:14.502Z,3.70
2022-11-23T22:30:40.643Z,3.85
2022-11-23T22:33:06.810Z,3.47
2022-11-23T22:35:33.008Z,4.15
2022-11-23T22:37:59.159Z,3.35
2022-11-23T22:40:25.289Z,3.55
2022-11-23T22:42:51.495Z,3.70
2022-11-23T22:45:17.620Z,3.55
2022-11-23T22:47:43.761Z,3.80
2022-11-23T22:50:09.937Z,3.38
2022-11-23T22:52:36.048Z,3.83
2022-11-23T22:55:02.181Z,2.72
2022-11-23T22:57:28.320Z,4.50
2022-11-23T22:59:54.543Z,5.13
2022-11-23T23:02:20.774Z,3.03
2022-11-23T23:04:46.961Z,3.28
2022-11-23T23:07:13.127Z,3.20
2022-11-23T23:09:39.272Z,3.08
2022-11-23T23:12:05.429Z,3.60
2022-11-23T23:14:31.929Z,3.65
2022-11-23T23:16:58.433Z,3.58
2022-11-23T23:19:24.655Z,3.80
2022-11-23T23:21:50.797Z,3.28
2022-11-23T23:24:16.968Z,3.17
2022-11-23T23:26:43.127Z,2.80
2022-11-23T23:29:09.248Z,2.17
2022-11-23T23:31:35.446Z,2.60
2022-11-23T23:34:01.666Z,2.60
2022-11-23T23:36:27.807Z,2.72
2022-11-23T23:38:53.938Z,3.47
2022-11-23T23:41:20.153Z,2.97
2022-11-23T23:43:46.335Z,2.92
2022-11-23T23:46:12.572Z,2.60
2022-11-23T23:48:38.738Z,2.50
2022-11-23T23:51:04.881Z,2.50
2022-11-23T23:53:31.006Z,3.90
2022-11-23T23:55:57.224Z,3.03
2022-11-23T23:58:23.479Z,2.65
